Time;durP1;ratioP1;P1;durP2;ratioP2;P2;SDS_P1;SDS_P2;PMS_P1;PMS_P2;Temp;Humidity;BMP_temperature;BMP_pressure;BME280_temperature;BME280_humidity;BME280_pressure;Samples;Min_cycle;Max_cycle;Signal;HPM_P1;HPM_P2
2022/07/12 00:01:51;;;;;;;8.20;5.83;;;16.50;99.90;;;;;;5093506;28;20052;-70
2022/07/12 00:04:17;;;;;;;8.13;6.87;;;16.50;99.90;;;;;;5076480;28;20059;-70
2022/07/12 00:06:42;;;;;;;8.17;7.27;;;16.50;99.90;;;;;;5093474;28;20043;-70
2022/07/12 00:09:08;;;;;;;9.07;7.63;;;16.50;99.90;;;;;;5093436;28;20040;-70
2022/07/12 00:11:37;;;;;;;8.60;7.73;;;16.50;99.90;;;;;;5092149;28;20047;-71
2022/07/12 00:14:04;;;;;;;9.83;7.77;;;16.50;99.90;;;;;;5093730;28;20093;-70
2022/07/12 00:16:30;;;;;;;8.77;7.87;;;16.50;99.90;;;;;;5093635;28;20048;-71
2022/07/12 00:18:57;;;;;;;10.20;7.83;;;16.50;99.90;;;;;;5094186;28;20048;-72
2022/07/12 00:21:23;;;;;;;11.03;8.97;;;16.50;99.90;;;;;;5094245;28;20391;-71
2022/07/12 00:23:48;;;;;;;9.27;8.20;;;16.40;99.90;;;;;;5075801;28;20044;-71
2022/07/12 00:26:14;;;;;;;9.67;8.20;;;16.40;99.90;;;;;;5093399;28;20083;-71
2022/07/12 00:28:40;;;;;;;10.27;8.23;;;16.40;99.90;;;;;;5093331;28;20048;-71
2022/07/12 00:31:06;;;;;;;9.77;8.27;;;16.40;99.90;;;;;;5092107;28;20040;-71
2022/07/12 00:33:31;;;;;;;8.40;7.60;;;16.50;99.90;;;;;;5093261;28;20084;-71
2022/07/12 00:35:57;;;;;;;10.17;8.80;;;16.50;99.90;;;;;;5092247;28;20051;-71
2022/07/12 00:38:23;;;;;;;9.00;8.10;;;16.40;99.90;;;;;;5092914;28;20190;-70
2022/07/12 00:40:49;;;;;;;10.90;8.93;;;16.40;99.90;;;;;;5093710;28;20467;-70
2022/07/12 00:43:15;;;;;;;9.67;7.93;;;16.40;99.90;;;;;;5092799;28;20484;-70
2022/07/12 00:45:41;;;;;;;9.60;8.60;;;16.30;99.90;;;;;;5091793;28;20048;-71
2022/07/12 00:48:08;;;;;;;9.00;8.10;;;16.30;99.90;;;;;;5093062;28;20048;-70
2022/07/12 00:50:34;;;;;;;8.23;7.40;;;16.20;99.90;;;;;;5093078;28;20097;-70
2022/07/12 00:53:00;;;;;;;10.50;8.03;;;16.30;99.90;;;;;;5093076;28;20052;-70
2022/07/12 00:55:26;;;;;;;9.60;8.57;;;16.30;99.90;;;;;;5093046;28;20040;-70
2022/07/12 00:57:52;;;;;;;11.67;8.37;;;16.20;99.90;;;;;;5093947;28;20040;-70
2022/07/12 01:00:27;;;;;;;8.57;7.60;;;16.20;99.90;;;;;;5097391;28;20040;-70
2022/07/12 01:02:54;;;;;;;12.93;8.30;;;16.10;99.90;;;;;;5096672;28;20048;-70
2022/07/12 01:05:20;;;;;;;8.53;7.57;;;16.10;99.90;;;;;;5096542;28;20106;-70
2022/07/12 01:07:46;;;;;;;8.53;7.63;;;16.00;99.90;;;;;;5096576;28;20048;-70
2022/07/12 01:10:12;;;;;;;7.70;6.73;;;16.00;99.90;;;;;;5097061;28;20100;-70
2022/07/12 01:12:38;;;;;;;8.67;6.80;;;16.00;99.90;;;;;;5096458;28;20391;-70
2022/07/12 01:15:08;;;;;;;8.50;6.67;;;16.10;99.90;;;;;;5096830;28;20051;-70
2022/07/12 01:17:38;;;;;;;7.57;6.60;;;16.10;99.90;;;;;;5096324;28;20181;-70
2022/07/12 01:20:06;;;;;;;8.43;6.73;;;16.20;99.90;;;;;;5096256;28;20043;-70
2022/07/12 01:22:36;;;;;;;7.67;6.87;;;16.20;99.90;;;;;;5096234;28;20043;-72
2022/07/12 01:25:04;;;;;;;8.13;6.00;;;16.30;99.90;;;;;;5097104;28;20048;-70
2022/07/12 01:27:30;;;;;;;7.07;6.30;;;16.30;99.90;;;;;;5096695;28;20048;-70
2022/07/12 01:29:56;;;;;;;7.47;6.13;;;16.30;99.90;;;;;;5095115;28;20056;-70
2022/07/12 01:32:25;;;;;;;8.97;6.73;;;16.40;99.90;;;;;;5096128;28;20048;-70
2022/07/12 01:34:52;;;;;;;32.10;7.33;;;16.40;99.90;;;;;;5095977;28;20419;-70
2022/07/12 01:37:23;;;;;;;36.03;7.67;;;16.40;99.90;;;;;;5095863;28;20044;-70
2022/07/12 01:39:52;;;;;;;7.10;6.17;;;16.30;99.90;;;;;;5094644;28;20477;-70
2022/07/12 01:42:22;;;;;;;8.57;6.70;;;16.20;99.90;;;;;;5095848;28;20492;-70
2022/07/12 01:44:52;;;;;;;42.43;7.67;;;16.20;99.90;;;;;;5094531;28;20051;-70
2022/07/12 01:47:18;;;;;;;11.87;6.80;;;16.10;99.90;;;;;;5095516;28;20522;-70
2022/07/12 01:49:44;;;;;;;11.47;6.33;;;16.00;99.90;;;;;;5095235;28;20467;-70
2022/07/12 01:52:10;;;;;;;31.70;6.70;;;16.00;99.90;;;;;;5096184;28;20097;-70
2022/07/12 01:54:36;;;;;;;20.00;6.27;;;15.90;99.90;;;;;;5077700;28;20127;-71
2022/07/12 01:57:03;;;;;;;7.50;5.43;;;15.90;99.90;;;;;;5095480;28;20129;-70
2022/07/12 01:59:30;;;;;;;78.70;6.97;;;15.90;99.90;;;;;;5095425;28;20051;-70
2022/07/12 02:01:57;;;;;;;129.33;7.50;;;15.90;99.90;;;;;;5096241;28;20052;-70
2022/07/12 02:04:22;;;;;;;166.90;7.97;;;15.80;99.90;;;;;;5095413;28;20036;-70
2022/07/12 02:06:48;;;;;;;26.17;5.40;;;15.70;99.90;;;;;;5095345;28;20040;-70
2022/07/12 02:09:15;;;;;;;45.00;6.83;;;15.70;99.90;;;;;;5095538;28;20132;-70
2022/07/12 02:11:42;;;;;;;30.27;6.53;;;15.70;99.90;;;;;;5094929;28;20578;-70
2022/07/12 02:14:08;;;;;;;18.97;5.23;;;15.70;99.90;;;;;;5094029;28;20131;-70
2022/07/12 02:16:34;;;;;;;79.30;7.40;;;15.70;99.90;;;;;;5094980;28;20049;-70
2022/07/12 02:19:00;;;;;;;65.77;6.60;;;15.60;99.90;;;;;;5095104;28;20044;-70
2022/07/12 02:21:26;;;;;;;13.10;5.57;;;15.60;99.90;;;;;;5095673;28;20058;-70
2022/07/12 02:23:52;;;;;;;77.53;7.10;;;15.60;99.90;;;;;;5095588;28;20044;-70
2022/07/12 02:26:18;;;;;;;23.83;5.47;;;15.70;99.90;;;;;;5095022;28;20093;-70
2022/07/12 02:28:43;;;;;;;33.07;6.30;;;15.70;99.90;;;;;;5094905;28;20100;-70
2022/07/12 02:31:09;;;;;;;65.47;6.93;;;15.60;99.90;;;;;;5094960;28;20055;-70
2022/07/12 02:33:35;;;;;;;102.13;7.20;;;15.60;99.90;;;;;;5094922;28;20044;-70
2022/07/12 02:36:01;;;;;;;43.87;6.77;;;15.60;99.90;;;;;;5094796;28;20048;-70
2022/07/12 02:38:27;;;;;;;42.03;6.57;;;15.60;99.90;;;;;;5094527;28;20059;-70
2022/07/12 02:40:53;;;;;;;65.27;6.50;;;15.60;99.90;;;;;;5094729;28;20052;-70
2022/07/12 02:43:19;;;;;;;104.07;7.17;;;15.60;99.90;;;;;;5094735;28;20051;-70
2022/07/12 02:45:46;;;;;;;119.57;7.67;;;15.50;99.90;;;;;;5093685;28;20044;-70
2022/07/12 02:48:12;;;;;;;36.23;6.07;;;15.60;99.90;;;;;;5094636;28;20076;-70
2022/07/12 02:50:41;;;;;;;41.80;6.27;;;15.60;99.90;;;;;;5094433;28;20035;-70
2022/07/12 02:53:07;;;;;;;72.00;6.50;;;15.60;99.90;;;;;;5094485;28;20059;-70
2022/07/12 02:55:34;;;;;;;25.47;5.27;;;15.60;99.90;;;;;;5094714;28;20051;-69
2022/07/12 02:58:00;;;;;;;72.43;6.30;;;15.50;99.90;;;;;;5094417;28;20075;-70
2022/07/12 03:00:26;;;;;;;69.63;6.00;;;15.50;99.90;;;;;;5095135;28;20105;-70
2022/07/12 03:02:52;;;;;;;68.23;5.93;;;15.50;99.90;;;;;;5094728;28;20047;-70
2022/07/12 03:05:18;;;;;;;25.63;5.07;;;15.50;99.90;;;;;;5094294;28;20479;-70
2022/07/12 03:07:44;;;;;;;20.20;4.83;;;15.50;99.90;;;;;;5093901;28;20503;-70
2022/07/12 03:10:10;;;;;;;11.83;4.90;;;15.50;99.90;;;;;;5094086;28;20086;-70
2022/07/12 03:12:37;;;;;;;17.57;4.30;;;15.40;99.90;;;;;;5094156;28;20086;-70
2022/07/12 03:15:03;;;;;;;43.80;4.60;;;15.50;99.90;;;;;;5094125;28;20483;-70
2022/07/12 03:17:29;;;;;;;11.80;3.80;;;15.40;99.90;;;;;;5094102;28;20403;-70
2022/07/12 03:19:55;;;;;;;33.70;4.60;;;15.50;99.90;;;;;;5093907;28;20044;-70
2022/07/12 03:22:20;;;;;;;31.60;3.87;;;15.50;99.90;;;;;;5093435;28;20052;-70
2022/07/12 03:24:46;;;;;;;20.67;3.77;;;15.50;99.90;;;;;;5093940;28;20086;-70
2022/07/12 03:27:12;;;;;;;30.13;4.57;;;15.40;99.90;;;;;;5092722;28;20036;-70
2022/07/12 03:29:39;;;;;;;24.87;3.90;;;15.30;99.90;;;;;;5093878;28;20163;-70
2022/07/12 03:32:06;;;;;;;15.97;3.80;;;15.30;99.90;;;;;;5094416;28;20081;-70
2022/07/12 03:34:32;;;;;;;13.50;3.50;;;15.30;99.90;;;;;;5094368;28;20050;-70
2022/07/12 03:36:58;;;;;;;35.30;4.17;;;15.30;99.90;;;;;;5093649;28;20044;-70
2022/07/12 03:39:25;;;;;;;11.67;3.63;;;15.40;99.90;;;;;;5094056;28;20051;-70
2022/07/12 03:41:50;;;;;;;9.10;3.33;;;15.30;99.90;;;;;;5093939;28;20480;-70
2022/07/12 03:44:16;;;;;;;9.93;3.50;;;15.40;99.90;;;;;;5093715;28;20316;-70
2022/07/12 03:46:42;;;;;;;9.90;3.20;;;15.30;99.90;;;;;;5092534;28;20162;-70
2022/07/12 03:49:08;;;;;;;9.93;3.10;;;15.30;99.90;;;;;;5093680;28;20044;-70
2022/07/12 03:51:33;;;;;;;6.40;3.00;;;15.20;99.90;;;;;;5093638;28;20131;-70
2022/07/12 03:53:59;;;;;;;10.23;3.10;;;15.20;99.90;;;;;;5093643;28;20063;-70
2022/07/12 03:59:09;;;;;;;8.37;3.10;;;15.20;99.90;;;;;;5094030;28;20082;-70
2022/07/12 04:01:35;;;;;;;7.97;3.20;;;15.30;99.90;;;;;;5093543;28;20052;-70
2022/07/12 04:04:02;;;;;;;7.20;2.80;;;15.30;99.90;;;;;;5093548;28;20087;-70
2022/07/12 04:06:28;;;;;;;9.40;3.03;;;15.20;99.90;;;;;;5092310;28;20079;-70
2022/07/12 04:08:54;;;;;;;15.43;3.70;;;15.20;99.90;;;;;;5093462;28;20347;-70
2022/07/12 04:11:19;;;;;;;9.90;3.00;;;15.30;99.90;;;;;;5094001;28;20475;-70
2022/07/12 04:13:45;;;;;;;34.13;4.07;;;15.20;99.90;;;;;;5093403;28;20100;-70
2022/07/12 04:16:12;;;;;;;14.80;3.30;;;15.20;99.90;;;;;;5093380;28;20058;-70
2022/07/12 04:18:38;;;;;;;56.97;4.57;;;15.30;99.90;;;;;;5126183;28;20419;-70
2022/07/12 04:21:04;;;;;;;12.93;3.00;;;15.20;99.90;;;;;;5093325;28;20040;-70
2022/07/12 04:23:29;;;;;;;5.97;3.07;;;15.20;99.90;;;;;;5092340;28;20286;-70
2022/07/12 04:25:55;;;;;;;4.30;3.10;;;15.30;99.90;;;;;;5092038;28;20070;-70
2022/07/12 04:28:21;;;;;;;18.93;3.57;;;15.30;99.90;;;;;;5093834;28;20052;-70
2022/07/12 04:30:48;;;;;;;6.57;3.43;;;15.30;99.90;;;;;;5093241;28;20075;-70
2022/07/12 04:33:14;;;;;;;6.10;2.80;;;15.30;99.90;;;;;;5096503;28;20048;-70
2022/07/12 04:35:40;;;;;;;6.50;3.33;;;15.40;99.90;;;;;;5097162;28;20286;-70
2022/07/12 04:38:07;;;;;;;8.37;3.33;;;15.40;99.90;;;;;;5097009;28;20125;-70
2022/07/12 04:40:33;;;;;;;4.23;2.87;;;15.50;99.90;;;;;;5096079;28;20052;-70
2022/07/12 04:42:59;;;;;;;5.17;3.10;;;15.50;99.90;;;;;;5097056;28;20051;-70
2022/07/12 04:45:25;;;;;;;5.20;2.90;;;15.60;99.90;;;;;;5097059;28;20082;-70
2022/07/12 04:47:50;;;;;;;4.30;2.70;;;15.60;99.90;;;;;;5096495;28;20508;-70
2022/07/12 04:50:16;;;;;;;4.50;3.20;;;15.70;99.90;;;;;;5097454;28;20076;-70
2022/07/12 04:52:42;;;;;;;4.87;2.70;;;15.80;99.90;;;;;;5097387;28;20127;-70
2022/07/12 04:55:08;;;;;;;3.73;2.43;;;16.00;99.90;;;;;;5096771;28;20510;-70
2022/07/12 04:57:35;;;;;;;3.50;2.37;;;16.10;99.90;;;;;;5096850;28;20040;-70
2022/07/12 05:00:01;;;;;;;4.13;2.80;;;16.30;99.90;;;;;;5095766;28;20059;-70
2022/07/12 05:02:27;;;;;;;4.07;2.67;;;16.40;99.90;;;;;;5096708;28;20052;-70
2022/07/12 05:04:53;;;;;;;4.23;2.60;;;16.50;99.90;;;;;;5096639;28;20185;-70
2022/07/12 05:07:19;;;;;;;4.40;2.63;;;16.70;99.90;;;;;;5096351;28;20044;-70
2022/07/12 05:09:45;;;;;;;3.93;2.47;;;16.90;99.90;;;;;;5096445;28;20126;-70
2022/07/12 05:12:11;;;;;;;5.23;2.93;;;17.00;99.90;;;;;;5097291;28;20071;-70
2022/07/12 05:14:37;;;;;;;4.67;2.50;;;17.10;99.90;;;;;;5095464;28;20059;-70
2022/07/12 05:17:02;;;;;;;4.47;2.93;;;17.20;99.90;;;;;;5095682;28;20527;-70
2022/07/12 05:19:28;;;;;;;5.47;3.00;;;17.20;99.90;;;;;;5096308;28;20044;-70
2022/07/12 05:21:54;;;;;;;4.00;2.70;;;17.20;99.90;;;;;;5096362;28;20135;-70
2022/07/12 05:24:19;;;;;;;4.40;2.67;;;17.30;99.90;;;;;;5096345;28;20044;-70
2022/07/12 05:26:45;;;;;;;4.90;2.97;;;17.30;99.90;;;;;;5096491;28;20047;-70
2022/07/12 05:29:11;;;;;;;4.33;2.60;;;17.40;99.90;;;;;;5095203;28;20495;-70
2022/07/12 05:31:36;;;;;;;4.33;2.70;;;17.50;99.90;;;;;;5096664;28;20372;-70
2022/07/12 05:34:02;;;;;;;4.20;3.00;;;17.50;99.90;;;;;;5096022;28;20069;-70
2022/07/12 05:36:28;;;;;;;4.50;2.73;;;17.60;99.90;;;;;;5095092;28;20055;-70
2022/07/12 05:38:54;;;;;;;4.33;2.97;;;17.80;99.90;;;;;;5095647;28;20067;-70
2022/07/12 05:41:20;;;;;;;4.00;2.73;;;17.80;99.90;;;;;;5096518;28;20177;-70
2022/07/12 05:43:45;;;;;;;4.50;2.80;;;17.90;99.90;;;;;;5094810;28;20145;-70
2022/07/12 05:46:11;;;;;;;4.17;2.93;;;18.00;99.90;;;;;;5096147;28;20052;-70
2022/07/12 05:48:38;;;;;;;4.20;2.83;;;18.00;99.90;;;;;;5095494;28;20558;-71
2022/07/12 05:53:49;;;;;;;4.32;2.95;;;18.10;99.90;;;;;;5096355;28;20048;-71
2022/07/12 05:56:14;;;;;;;4.77;2.80;;;18.20;99.90;;;;;;5096154;28;20048;-71
2022/07/12 05:58:40;;;;;;;5.23;3.00;;;18.40;99.90;;;;;;5096091;28;20040;-70
2022/07/12 06:01:06;;;;;;;4.10;2.90;;;18.60;99.90;;;;;;5095569;28;20052;-70
2022/07/12 06:03:32;;;;;;;4.13;2.80;;;18.80;99.90;;;;;;5095522;28;20048;-70
2022/07/12 06:05:58;;;;;;;3.80;2.47;;;19.50;99.90;;;;;;5096093;28;20074;-70
2022/07/12 06:08:24;;;;;;;5.23;3.10;;;19.70;99.90;;;;;;5094429;28;20111;-71
2022/07/12 06:10:50;;;;;;;4.73;2.50;;;20.10;99.90;;;;;;5094134;28;20110;-70
2022/07/12 06:13:15;;;;;;;3.87;2.40;;;20.40;99.90;;;;;;5094585;28;20052;-71
2022/07/12 06:15:41;;;;;;;4.73;2.70;;;20.90;99.90;;;;;;5095776;28;20083;-71
2022/07/12 06:18:07;;;;;;;3.60;2.50;;;21.40;99.90;;;;;;5095361;28;20044;-70
2022/07/12 06:20:33;;;;;;;3.30;2.10;;;22.10;99.90;;;;;;5095055;28;20040;-70
2022/07/12 06:22:59;;;;;;;3.30;2.17;;;;;;;;;;5095202;28;20087;-70
2022/07/12 06:25:25;;;;;;;6.40;2.90;;;23.40;99.90;;;;;;5095822;28;20044;-71
2022/07/12 06:27:51;;;;;;;5.83;2.57;;;;;;;;;;5095098;28;20047;-70
2022/07/12 06:30:21;;;;;;;5.00;2.33;;;24.50;99.90;;;;;;5095521;28;20051;-71
2022/07/12 06:32:48;;;;;;;3.63;2.17;;;24.80;99.90;;;;;;5095015;28;20079;-71
2022/07/12 06:35:14;;;;;;;4.60;2.50;;;25.00;99.90;;;;;;5094613;28;20479;-71
2022/07/12 06:37:40;;;;;;;5.47;2.10;;;;;;;;;;5095135;28;20121;-71
2022/07/12 06:40:07;;;;;;;2.83;1.90;;;;;;;;;;5094908;28;20056;-73
2022/07/12 06:42:34;;;;;;;2.83;2.07;;;25.70;99.90;;;;;;5094808;28;20399;-71
2022/07/12 06:45:00;;;;;;;2.80;1.93;;;26.40;97.90;;;;;;5095546;28;20073;-71
2022/07/12 06:47:25;;;;;;;3.13;2.00;;;26.70;99.90;;;;;;5094664;28;20052;-71
2022/07/12 06:49:52;;;;;;;2.53;1.73;;;;;;;;;;5093916;28;20119;-71
2022/07/12 06:52:17;;;;;;;3.10;1.87;;;27.30;91.40;;;;;;5095054;28;20048;-71
2022/07/12 06:54:43;;;;;;;3.03;1.90;;;27.10;88.30;;;;;;5094168;28;20040;-71
2022/07/12 06:57:09;;;;;;;2.63;1.70;;;26.70;87.40;;;;;;5093617;28;20098;-71
2022/07/12 06:59:35;;;;;;;3.60;2.27;;;;;;;;;;5094340;28;20043;-71
2022/07/12 07:02:01;;;;;;;4.30;2.30;;;25.90;95.70;;;;;;5094375;28;20047;-71
2022/07/12 07:04:27;;;;;;;3.47;2.10;;;25.70;92.70;;;;;;5094610;28;20499;-71
2022/07/12 07:06:53;;;;;;;4.10;2.17;;;25.60;93.20;;;;;;5094283;28;20468;-71
2022/07/12 07:09:19;;;;;;;3.37;2.30;;;25.90;93.20;;;;;;5093225;28;20044;-71
2022/07/12 07:11:44;;;;;;;3.57;2.23;;;26.20;92.50;;;;;;5093904;28;20100;-71
2022/07/12 07:14:10;;;;;;;2.83;2.03;;;26.40;92.30;;;;;;5094043;28;20052;-71
2022/07/12 07:16:36;;;;;;;3.07;1.97;;;26.70;91.30;;;;;;5094177;28;20112;-75
2022/07/12 07:19:02;;;;;;;3.60;2.40;;;26.90;90.10;;;;;;5094271;28;20491;-72
2022/07/12 07:21:28;;;;;;;3.53;2.17;;;27.90;79.20;;;;;;5094774;28;20040;-72
2022/07/12 07:23:55;;;;;;;3.60;2.42;;;;;;;;;;5092783;28;20060;-72
2022/07/12 07:26:21;;;;;;;3.80;2.80;;;28.50;97.00;;;;;;5093982;28;20407;-72
2022/07/12 07:31:36;;;;;;;4.47;2.67;;;29.10;70.90;;;;;;5092990;28;20052;-73
2022/07/12 07:34:03;;;;;;;4.10;3.10;;;;;;;;;;5093892;28;20052;-73
2022/07/12 07:36:29;;;;;;;3.55;2.13;;;28.40;98.00;;;;;;5092846;28;20499;-73
2022/07/12 07:38:55;;;;;;;4.35;2.42;;;27.90;73.00;;;;;;5093440;28;20052;-73
2022/07/12 07:41:21;;;;;;;3.78;2.40;;;;;;;;;;5093736;28;20063;-73
2022/07/12 07:43:47;;;;;;;5.18;2.17;;;;;;;;;;5094449;28;20047;-73
2022/07/12 07:46:13;;;;;;;4.60;2.90;;;;;;;;;;5094218;28;20134;-73
2022/07/12 07:48:39;;;;;;;3.78;2.33;;;;;;;;;;5093900;28;20055;-73
2022/07/12 07:51:05;;;;;;;3.72;2.70;;;;;;;;;;5093625;28;20052;-73
2022/07/12 07:53:31;;;;;;;3.90;2.67;;;;;;;;;;5094071;28;20048;-73
2022/07/12 07:55:57;;;;;;;3.70;2.50;;;;;;;;;;5092563;28;20059;-73
2022/07/12 07:58:24;;;;;;;4.72;2.53;;;;;;;;;;5093493;28;20392;-73
2022/07/12 08:00:50;;;;;;;4.95;2.78;;;;;;;;;;5093931;28;20080;-73
2022/07/12 08:03:17;;;;;;;5.50;2.95;;;26.20;90.40;;;;;;5093384;28;20044;-73
2022/07/12 08:05:43;;;;;;;5.57;2.47;;;;;;;;;;5093404;28;20498;-73
2022/07/12 08:08:09;;;;;;;4.43;2.60;;;25.80;99.90;;;;;;5096975;28;20136;-73
2022/07/12 08:10:35;;;;;;;4.00;2.40;;;;;;;;;;5096652;28;20109;-71
2022/07/12 08:13:01;;;;;;;3.90;2.10;;;;;;;;;;5097870;28;20127;-73
2022/07/12 08:15:27;;;;;;;4.07;2.47;;;;;;;;;;5097523;28;20506;-73
2022/07/12 08:17:53;;;;;;;5.20;2.72;;;;;;;;;;5130559;27;20047;-73
2022/07/12 08:20:19;;;;;;;5.60;2.70;;;;;;;;;;5097372;28;20040;-73
2022/07/12 08:22:46;;;;;;;4.05;2.65;;;26.80;90.50;;;;;;5096132;28;20048;-73
2022/07/12 08:25:15;;;;;;;4.35;2.92;;;27.00;91.50;;;;;;5097255;28;20455;-72
2022/07/12 08:27:41;;;;;;;4.32;2.83;;;;;;;;;;5097371;28;20055;-73
2022/07/12 08:30:08;;;;;;;4.82;2.58;;;28.10;82.40;;;;;;5097336;28;20127;-72
2022/07/12 08:32:34;;;;;;;4.57;2.50;;;;;;;;;;5130704;27;20404;-73
2022/07/12 08:35:00;;;;;;;5.82;3.05;;;;;;;;;;5097260;28;20052;-73
2022/07/12 08:37:26;;;;;;;4.47;2.95;;;;;;;;;;5097125;28;20052;-73
2022/07/12 08:39:52;;;;;;;5.55;2.67;;;;;;;;;;5097447;28;20048;-73
2022/07/12 08:42:18;;;;;;;4.13;2.63;;;31.00;92.40;;;;;;5097042;28;20044;-73
2022/07/12 08:44:44;;;;;;;5.45;2.60;;;31.10;61.50;;;;;;5097067;28;20043;-73
2022/07/12 08:47:10;;;;;;;6.82;2.60;;;31.00;61.20;;;;;;5096973;28;20079;-73
2022/07/12 08:49:37;;;;;;;6.30;2.60;;;31.00;60.60;;;;;;5096809;28;20047;-72
2022/07/12 08:52:22;;;;;;;4.22;2.80;;;;;;;;;;5096534;28;20468;-73
2022/07/12 08:54:48;;;;;;;8.20;2.53;;;;;;;;;;5096760;28;20148;-73
2022/07/12 08:57:28;;;;;;;3.53;2.78;;;;;;;;;;5096838;28;20044;-71
2022/07/12 08:59:59;;;;;;;6.63;2.85;;;;;;;;;;5096660;28;20142;-72
2022/07/12 09:02:26;;;;;;;3.55;2.42;;;;;;;;;;5097109;28;20048;-76
2022/07/12 09:05:08;;;;;;;3.85;2.50;;;30.10;89.50;;;;;;5096544;28;20483;-75
2022/07/12 09:07:37;;;;;;;4.57;2.70;;;;;;;;;;5129668;27;20400;-75
2022/07/12 09:10:10;;;;;;;4.35;3.00;;;;;;;;;;5096594;28;20066;-75
2022/07/12 09:12:37;;;;;;;4.97;3.00;;;28.60;65.30;;;;;;5096986;28;20174;-76
2022/07/12 09:15:17;;;;;;;6.50;3.30;;;;;;;;;;5097075;28;20048;-77
2022/07/12 09:17:47;;;;;;;4.30;2.90;;;;;;;;;;5097098;28;20473;-76
2022/07/12 09:20:13;;;;;;;5.50;3.20;;;;;;;;;;5095092;28;20483;-75
2022/07/12 09:22:47;;;;;;;4.85;2.78;;;;;;;;;;5097029;28;20375;-75
2022/07/12 09:25:20;;;;;;;5.88;4.00;;;28.00;99.30;;;;;;5096786;28;20051;-76
2022/07/12 09:27:53;;;;;;;5.65;3.63;;;;;;;;;;5096170;28;20048;-77
2022/07/12 09:30:19;;;;;;;5.35;3.50;;;;;;;;;;5096084;28;20384;-75
2022/07/12 09:38:21;;;;;;;6.93;3.63;;;;;;;;;;5096245;28;20443;-76
2022/07/12 09:40:49;;;;;;;4.93;3.38;;;;;;;;;;5095833;28;20044;-74
2022/07/12 09:43:15;;;;;;;3.83;2.92;;;;;;;;;;5095923;28;20048;-72
2022/07/12 09:45:43;;;;;;;4.20;3.00;;;;;;;;;;5095933;28;20055;-72
2022/07/12 09:48:11;;;;;;;5.55;3.72;;;;;;;;;;5095414;28;20048;-72
2022/07/12 09:50:38;;;;;;;5.85;4.03;;;27.70;75.20;;;;;;5096001;28;20499;-73
2022/07/12 09:53:03;;;;;;;5.65;3.50;;;27.60;76.20;;;;;;5095759;28;20051;-72
2022/07/12 09:55:32;;;;;;;7.60;4.28;;;27.60;79.00;;;;;;5096525;28;20043;-72
2022/07/12 09:58:01;;;;;;;7.07;4.00;;;27.50;79.50;;;;;;5095682;28;20048;-72
2022/07/12 10:00:28;;;;;;;7.88;4.22;;;27.40;80.50;;;;;;5095563;28;20074;-72
2022/07/12 10:02:56;;;;;;;7.28;5.28;;;27.40;81.30;;;;;;5095592;28;20091;-72
2022/07/12 10:05:24;;;;;;;7.43;5.35;;;27.40;81.80;;;;;;5095525;28;20120;-72
2022/07/12 10:07:51;;;;;;;6.00;5.30;;;27.40;81.70;;;;;;5095488;28;20044;-72
2022/07/12 10:10:17;;;;;;;8.38;6.38;;;;;;;;;;5093915;28;20442;-72
2022/07/12 10:12:44;;;;;;;7.93;5.90;;;27.10;99.90;;;;;;5095900;28;20047;-72
2022/07/12 10:15:15;;;;;;;7.03;5.25;;;27.20;99.80;;;;;;5095360;28;20466;-72
2022/07/12 10:17:50;;;;;;;6.53;4.85;;;27.40;99.70;;;;;;5095870;28;20127;-72
2022/07/12 10:20:19;;;;;;;6.65;5.20;;;27.20;99.40;;;;;;5095266;28;20040;-72
2022/07/12 10:22:45;;;;;;;6.43;4.90;;;;;;;;;;5095184;28;20055;-72
2022/07/12 10:25:26;;;;;;;6.07;4.93;;;;;;;;;;5095707;28;20412;-72
2022/07/12 10:27:52;;;;;;;6.03;4.60;;;;;;;;;;5095123;28;20055;-72
2022/07/12 10:30:20;;;;;;;6.97;4.85;;;;;;;;;;5094836;28;20047;-72
2022/07/12 10:32:48;;;;;;;6.40;4.75;;;;;;;;;;5095585;28;20059;-72
2022/07/12 10:35:19;;;;;;;8.30;4.95;;;;;;;;;;5094962;28;20047;-72
2022/07/12 10:38:03;;;;;;;7.75;4.82;;;;;;;;;;5094483;28;20048;-73
2022/07/12 10:40:34;;;;;;;7.07;4.80;;;;;;;;;;5095284;28;20135;-71
2022/07/12 10:43:07;;;;;;;6.63;4.88;;;;;;;;;;5095111;28;20075;-72
2022/07/12 10:45:35;;;;;;;7.20;4.07;;;;;;;;;;5095270;28;20052;-73
2022/07/12 10:48:05;;;;;;;6.23;4.30;;;;;;;;;;5094738;28;20043;-75
2022/07/12 10:50:48;;;;;;;6.70;4.65;;;;;;;;;;5094957;28;20047;-73
2022/07/12 10:53:23;;;;;;;5.10;3.70;;;;;;;;;;5095192;28;20051;-71
2022/07/12 10:56:06;;;;;;;6.27;4.50;;;;;;;;;;5095272;28;20067;-71
2022/07/12 10:58:33;;;;;;;6.25;3.67;;;;;;;;;;5094461;28;20047;-71
2022/07/12 11:01:01;;;;;;;4.60;3.33;;;;;;;;;;5093452;28;20066;-72
2022/07/12 11:03:32;;;;;;;4.97;3.00;;;27.10;77.90;;;;;;5094369;28;20051;-72
2022/07/12 11:06:05;;;;;;;6.97;3.80;;;27.10;78.30;;;;;;5094321;28;20048;-72
2022/07/12 11:08:31;;;;;;;10.25;4.05;;;27.00;80.00;;;;;;5094191;28;20052;-72
2022/07/12 11:10:58;;;;;;;6.33;3.60;;;27.00;81.00;;;;;;5094466;28;20050;-70
2022/07/12 11:13:25;;;;;;;6.47;4.05;;;27.00;82.10;;;;;;5094229;28;20052;-72
2022/07/12 11:15:57;;;;;;;6.80;3.87;;;27.00;82.80;;;;;;5094126;28;20384;-72
2022/07/12 11:18:34;;;;;;;9.07;4.10;;;27.10;80.90;;;;;;5094175;28;20118;-74
2022/07/12 11:21:01;;;;;;;7.57;3.47;;;27.00;78.90;;;;;;5094062;28;20044;-72
2022/07/12 11:23:28;;;;;;;4.93;3.40;;;27.00;79.80;;;;;;5094358;28;20048;-71
2022/07/12 11:25:55;;;;;;;5.60;3.97;;;27.10;78.30;;;;;;5094822;28;20161;-74
2022/07/12 11:28:23;;;;;;;6.57;3.87;;;27.10;78.10;;;;;;5093992;28;20055;-70
2022/07/12 11:30:52;;;;;;;6.90;3.40;;;27.00;79.50;;;;;;5094209;28;20119;-71
2022/07/12 11:33:18;;;;;;;8.53;3.63;;;27.00;78.70;;;;;;5093899;28;20054;-71
2022/07/12 11:35:45;;;;;;;6.20;3.60;;;26.90;78.40;;;;;;5092858;28;20052;-74
2022/07/12 11:38:11;;;;;;;6.43;3.33;;;26.90;77.60;;;;;;5094257;28;20056;-72
2022/07/12 11:40:37;;;;;;;5.33;3.20;;;26.80;80.00;;;;;;5093815;28;20051;-71
2022/07/12 11:43:04;;;;;;;8.53;2.80;;;26.90;79.10;;;;;;5093180;28;20036;-73
2022/07/12 11:45:31;;;;;;;4.47;2.30;;;26.80;77.90;;;;;;5093666;28;20054;-71
2022/07/12 11:48:02;;;;;;;6.40;2.80;;;26.80;76.30;;;;;;5092392;28;20040;-69
2022/07/12 11:50:34;;;;;;;4.23;2.40;;;26.80;76.30;;;;;;5094076;28;20115;-69
2022/07/12 11:53:00;;;;;;;6.67;3.10;;;26.80;78.80;;;;;;5093636;28;20048;-69
2022/07/12 11:55:26;;;;;;;4.30;3.00;;;26.80;76.80;;;;;;5093617;28;20055;-70
2022/07/12 11:58:02;;;;;;;4.87;3.33;;;26.70;75.90;;;;;;5093606;28;20048;-70
2022/07/12 12:00:28;;;;;;;5.07;3.07;;;26.70;96.00;;;;;;5093619;28;20048;-70
2022/07/12 12:02:53;;;;;;;6.87;2.53;;;26.60;94.30;;;;;;5093230;28;20113;-70
2022/07/12 12:05:20;;;;;;;4.13;2.50;;;26.60;92.90;;;;;;5093606;28;20040;-70
2022/07/12 12:07:47;;;;;;;6.20;2.20;;;26.50;93.10;;;;;;5091953;28;20047;-71
2022/07/12 12:10:18;;;;;;;6.40;2.30;;;26.40;93.60;;;;;;5094253;28;20080;-70
2022/07/12 12:12:54;;;;;;;3.67;2.00;;;26.30;75.00;;;;;;5094252;28;20097;-71
2022/07/12 12:15:26;;;;;;;4.60;2.10;;;26.30;73.30;;;;;;5093498;28;20044;-71
2022/07/12 12:18:01;;;;;;;4.83;1.90;;;26.20;73.10;;;;;;5094022;28;20056;-71
2022/07/12 12:20:29;;;;;;;6.90;1.90;;;26.20;72.40;;;;;;5093892;28;20044;-71
2022/07/12 12:22:56;;;;;;;3.87;1.87;;;;;;;;;;5093700;28;20048;-70
2022/07/12 12:25:22;;;;;;;5.10;2.00;;;26.20;69.50;;;;;;5093415;28;20054;-76
2022/07/12 12:27:55;;;;;;;3.33;2.10;;;26.20;69.50;;;;;;5093566;28;20051;-76
2022/07/12 12:30:21;;;;;;;6.30;1.60;;;26.20;68.40;;;;;;5093586;28;20490;-76
2022/07/12 12:32:55;;;;;;;6.50;1.93;;;26.20;67.50;;;;;;5092237;28;20055;-75
2022/07/12 12:35:23;;;;;;;3.38;1.40;;;26.20;67.70;;;;;;5093912;28;20216;-76
2022/07/12 12:38:15;;;;;;;3.97;1.33;;;26.20;66.10;;;;;;5093715;28;20087;-76
2022/07/12 12:40:51;;;;;;;1.70;1.20;;;26.20;65.90;;;;;;5090415;28;20059;-76
2022/07/12 12:43:20;;;;;;;2.33;1.10;;;26.20;63.50;;;;;;5092555;28;20060;-75
2022/07/12 12:45:51;;;;;;;4.50;1.17;;;26.20;62.40;;;;;;5093184;28;20484;-76
2022/07/12 12:48:24;;;;;;;3.53;1.10;;;26.30;62.00;;;;;;5093117;28;20110;-77
2022/07/12 12:50:54;;;;;;;1.80;0.90;;;26.30;61.30;;;;;;5093077;28;20571;-78
2022/07/12 12:53:23;;;;;;;2.20;1.13;;;26.40;60.60;;;;;;5094266;28;20047;-76
2022/07/12 12:55:55;;;;;;;2.90;1.30;;;26.40;59.50;;;;;;5097320;28;20044;-75
2022/07/12 12:58:24;;;;;;;3.03;1.40;;;26.40;60.30;;;;;;5095343;28;20044;-74
2022/07/12 13:00:52;;;;;;;3.27;1.30;;;26.50;61.90;;;;;;5097377;28;20044;-77
2022/07/12 13:03:20;;;;;;;5.37;1.30;;;26.50;62.10;;;;;;5097423;28;20044;-77
2022/07/12 13:05:47;;;;;;;2.33;1.30;;;26.60;62.50;;;;;;5096663;28;20052;-75
2022/07/12 13:08:14;;;;;;;4.03;1.30;;;26.60;62.80;;;;;;5095566;28;20483;-72
2022/07/12 13:10:41;;;;;;;3.07;1.17;;;26.70;62.00;;;;;;5096381;28;20055;-73
2022/07/12 13:13:08;;;;;;;3.37;1.20;;;26.80;61.20;;;;;;5095877;28;20044;-75
2022/07/12 13:15:35;;;;;;;5.23;1.20;;;26.90;60.60;;;;;;5094481;28;20475;-71
2022/07/12 13:18:04;;;;;;;2.30;1.00;;;27.00;59.10;;;;;;5095747;28;20044;-70
2022/07/12 13:20:30;;;;;;;2.83;1.17;;;27.00;57.50;;;;;;5095482;28;20127;-69